sensor_id;sensor_type;location;lat;lon;timestamp;pressure;altitude;pressure_sealevel;temperature;humidity
72798;BME280;61084;55.816;37.036;2022-08-02T00:02:05;99558.94;;;16.21;56.03
72798;BME280;61084;55.816;37.036;2022-08-02T00:04:31;99562.53;;;16.20;56.25
72798;BME280;61084;55.816;37.036;2022-08-02T00:06:56;99560.84;;;16.19;56.15
72798;BME280;61084;55.816;37.036;2022-08-02T00:09:22;99550.47;;;16.16;56.13
72798;BME280;61084;55.816;37.036;2022-08-02T00:11:48;99564.56;;;16.17;56.18
72798;BME280;61084;55.816;37.036;2022-08-02T00:14:14;99558.41;;;16.16;56.19
72798;BME280;61084;55.816;37.036;2022-08-02T00:16:39;99560.25;;;16.16;56.16
72798;BME280;61084;55.816;37.036;2022-08-02T00:19:05;99558.66;;;16.13;56.35
72798;BME280;61084;55.816;37.036;2022-08-02T00:21:31;99564.16;;;16.10;56.48
72798;BME280;61084;55.816;37.036;2022-08-02T00:23:57;99560.78;;;16.08;56.67
72798;BME280;61084;55.816;37.036;2022-08-02T00:26:23;99552.56;;;16.00;56.78
72798;BME280;61084;55.816;37.036;2022-08-02T00:28:49;99545.81;;;15.96;56.99
72798;BME280;61084;55.816;37.036;2022-08-02T00:31:14;99549.38;;;15.95;56.96
72798;BME280;61084;55.816;37.036;2022-08-02T00:33:40;99550.44;;;15.93;57.10
72798;BME280;61084;55.816;37.036;2022-08-02T00:36:06;99548.53;;;15.95;56.84
72798;BME280;61084;55.816;37.036;2022-08-02T00:38:32;99544.31;;;15.92;56.87
72798;BME280;61084;55.816;37.036;2022-08-02T00:40:58;99543.56;;;15.90;57.29
72798;BME280;61084;55.816;37.036;2022-08-02T00:43:24;99539.38;;;15.88;57.16
72798;BME280;61084;55.816;37.036;2022-08-02T00:45:49;99540.44;;;15.85;57.22
72798;BME280;61084;55.816;37.036;2022-08-02T00:48:16;99556.41;;;15.83;57.31
72798;BME280;61084;55.816;37.036;2022-08-02T00:50:42;99550.28;;;15.83;57.23
72798;BME280;61084;55.816;37.036;2022-08-02T00:53:08;99552.09;;;15.82;57.30
72798;BME280;61084;55.816;37.036;2022-08-02T00:55:35;99549.56;;;15.81;58.23
72798;BME280;61084;55.816;37.036;2022-08-02T00:58:02;99554.00;;;15.80;57.41
72798;BME280;61084;55.816;37.036;2022-08-02T01:00:28;99551.56;;;15.77;57.31
72798;BME280;61084;55.816;37.036;2022-08-02T01:02:54;99548.19;;;15.75;57.40
72798;BME280;61084;55.816;37.036;2022-08-02T01:05:20;99553.59;;;15.74;57.32
72798;BME280;61084;55.816;37.036;2022-08-02T01:07:45;99547.56;;;15.72;57.49
72798;BME280;61084;55.816;37.036;2022-08-02T01:10:11;99555.59;;;15.70;57.68
72798;BME280;61084;55.816;37.036;2022-08-02T01:12:38;99550.53;;;15.67;57.82
72798;BME280;61084;55.816;37.036;2022-08-02T01:15:07;99555.09;;;15.65;57.87
72798;BME280;61084;55.816;37.036;2022-08-02T01:17:55;99557.81;;;15.64;58.15
72798;BME280;61084;55.816;37.036;2022-08-02T01:20:48;99551.72;;;15.63;58.12
72798;BME280;61084;55.816;37.036;2022-08-02T01:23:43;99549.28;;;15.60;58.21
72798;BME280;61084;55.816;37.036;2022-08-02T01:26:36;99550.44;;;15.56;58.35
72798;BME280;61084;55.816;37.036;2022-08-02T01:29:16;99552.34;;;15.54;58.22
72798;BME280;61084;55.816;37.036;2022-08-02T01:34:33;99543.28;;;15.46;58.43
72798;BME280;61084;55.816;37.036;2022-08-02T01:37:06;99542.41;;;15.45;58.35
72798;BME280;61084;55.816;37.036;2022-08-02T01:39:35;99545.19;;;15.44;58.35
72798;BME280;61084;55.816;37.036;2022-08-02T01:42:03;99547.06;;;15.42;58.09
72798;BME280;61084;55.816;37.036;2022-08-02T01:44:33;99551.63;;;15.40;58.42
72798;BME280;61084;55.816;37.036;2022-08-02T01:47:05;99547.25;;;15.39;58.65
72798;BME280;61084;55.816;37.036;2022-08-02T01:49:33;99552.66;;;15.37;58.61
72798;BME280;61084;55.816;37.036;2022-08-02T01:52:01;99557.97;;;15.37;58.81
72798;BME280;61084;55.816;37.036;2022-08-02T01:55:11;99554.47;;;15.37;58.86
72798;BME280;61084;55.816;37.036;2022-08-02T01:57:39;99558.16;;;15.34;58.91
72798;BME280;61084;55.816;37.036;2022-08-02T02:00:07;99561.00;;;15.31;58.92
72798;BME280;61084;55.816;37.036;2022-08-02T02:02:36;99562.84;;;15.31;58.83
72798;BME280;61084;55.816;37.036;2022-08-02T02:05:04;99558.38;;;15.31;58.84
72798;BME280;61084;55.816;37.036;2022-08-02T02:07:32;99560.28;;;15.29;59.01
72798;BME280;61084;55.816;37.036;2022-08-02T02:10:00;99564.75;;;15.29;58.78
72798;BME280;61084;55.816;37.036;2022-08-02T02:12:27;99563.78;;;15.30;58.71
72798;BME280;61084;55.816;37.036;2022-08-02T02:15:14;99564.75;;;15.29;58.97
72798;BME280;61084;55.816;37.036;2022-08-02T02:17:45;99554.47;;;15.24;59.28
72798;BME280;61084;55.816;37.036;2022-08-02T02:20:15;99560.38;;;15.28;59.21
72798;BME280;61084;55.816;37.036;2022-08-02T02:22:42;99561.25;;;15.28;58.99
72798;BME280;61084;55.816;37.036;2022-08-02T02:25:08;99563.88;;;15.28;60.06
72798;BME280;61084;55.816;37.036;2022-08-02T02:27:35;99564.81;;;15.27;59.47
72798;BME280;61084;55.816;37.036;2022-08-02T02:30:03;99557.94;;;15.25;59.64
72798;BME280;61084;55.816;37.036;2022-08-02T02:32:30;99555.41;;;15.23;59.61
72798;BME280;61084;55.816;37.036;2022-08-02T02:34:58;99560.59;;;15.25;59.50
72798;BME280;61084;55.816;37.036;2022-08-02T02:37:27;99553.41;;;15.27;59.60
72798;BME280;61084;55.816;37.036;2022-08-02T02:39:54;99554.97;;;15.29;59.59
72798;BME280;61084;55.816;37.036;2022-08-02T02:42:26;99552.88;;;15.34;59.44
72798;BME280;61084;55.816;37.036;2022-08-02T02:44:53;99550.84;;;15.38;59.22
72798;BME280;61084;55.816;37.036;2022-08-02T02:47:21;99555.81;;;15.42;59.48
72798;BME280;61084;55.816;37.036;2022-08-02T02:49:48;99553.00;;;15.45;59.84
72798;BME280;61084;55.816;37.036;2022-08-02T02:52:16;99556.25;;;15.49;59.92
72798;BME280;61084;55.816;37.036;2022-08-02T02:54:42;99560.50;;;15.51;60.91
72798;BME280;61084;55.816;37.036;2022-08-02T02:57:09;99565.59;;;15.54;60.19
72798;BME280;61084;55.816;37.036;2022-08-02T02:59:38;99569.59;;;15.60;60.22
72798;BME280;61084;55.816;37.036;2022-08-02T03:02:04;99558.78;;;15.63;60.12
72798;BME280;61084;55.816;37.036;2022-08-02T03:04:30;99561.84;;;15.69;61.13
72798;BME280;61084;55.816;37.036;2022-08-02T03:06:58;99563.13;;;15.76;60.55
72798;BME280;61084;55.816;37.036;2022-08-02T03:09:24;99565.06;;;15.85;60.13
72798;BME280;61084;55.816;37.036;2022-08-02T03:11:52;99553.84;;;15.95;60.26
72798;BME280;61084;55.816;37.036;2022-08-02T03:14:20;99553.28;;;16.02;59.73
72798;BME280;61084;55.816;37.036;2022-08-02T03:16:48;99558.88;;;16.10;60.17
72798;BME280;61084;55.816;37.036;2022-08-02T03:19:15;99563.50;;;16.19;60.25
72798;BME280;61084;55.816;37.036;2022-08-02T03:21:45;99563.69;;;16.29;60.47
72798;BME280;61084;55.816;37.036;2022-08-02T03:24:11;99568.28;;;16.38;60.34
72798;BME280;61084;55.816;37.036;2022-08-02T03:26:37;99571.75;;;16.51;60.13
72798;BME280;61084;55.816;37.036;2022-08-02T03:29:04;99564.81;;;16.61;60.20
72798;BME280;61084;55.816;37.036;2022-08-02T03:31:30;99569.19;;;16.73;59.93
72798;BME280;61084;55.816;37.036;2022-08-02T03:33:58;99563.19;;;16.82;60.26
72798;BME280;61084;55.816;37.036;2022-08-02T03:36:26;99561.50;;;16.92;60.20
72798;BME280;61084;55.816;37.036;2022-08-02T03:38:53;99558.78;;;17.05;59.70
72798;BME280;61084;55.816;37.036;2022-08-02T03:41:21;99561.47;;;17.16;59.66
72798;BME280;61084;55.816;37.036;2022-08-02T03:43:48;99557.00;;;17.27;59.47
72798;BME280;61084;55.816;37.036;2022-08-02T03:46:18;99555.94;;;17.41;59.05
72798;BME280;61084;55.816;37.036;2022-08-02T03:48:45;99562.84;;;17.55;58.91
72798;BME280;61084;55.816;37.036;2022-08-02T03:51:11;99561.88;;;17.67;58.66
72798;BME280;61084;55.816;37.036;2022-08-02T03:53:37;99565.47;;;17.77;59.41
72798;BME280;61084;55.816;37.036;2022-08-02T03:56:04;99565.22;;;17.91;58.61
72798;BME280;61084;55.816;37.036;2022-08-02T03:58:31;99565.06;;;18.03;58.13
72798;BME280;61084;55.816;37.036;2022-08-02T04:00:57;99569.50;;;18.14;57.44
72798;BME280;61084;55.816;37.036;2022-08-02T04:03:24;99566.72;;;18.27;57.15
72798;BME280;61084;55.816;37.036;2022-08-02T04:05:51;99570.06;;;18.40;57.02
72798;BME280;61084;55.816;37.036;2022-08-02T04:08:17;99571.03;;;18.50;56.98
72798;BME280;61084;55.816;37.036;2022-08-02T04:10:43;99561.06;;;18.63;56.58
72798;BME280;61084;55.816;37.036;2022-08-02T04:13:31;99565.09;;;18.78;56.46
72798;BME280;61084;55.816;37.036;2022-08-02T04:16:12;99563.09;;;18.91;56.54
72798;BME280;61084;55.816;37.036;2022-08-02T04:18:44;99571.59;;;19.06;56.29
72798;BME280;61084;55.816;37.036;2022-08-02T04:21:14;99565.81;;;19.21;56.02
72798;BME280;61084;55.816;37.036;2022-08-02T04:23:41;99569.97;;;19.35;55.63
72798;BME280;61084;55.816;37.036;2022-08-02T04:26:08;99562.63;;;19.48;55.57
72798;BME280;61084;55.816;37.036;2022-08-02T04:28:35;99567.97;;;19.58;55.29
72798;BME280;61084;55.816;37.036;2022-08-02T04:31:02;99559.88;;;19.69;54.65
72798;BME280;61084;55.816;37.036;2022-08-02T04:33:30;99560.78;;;19.79;54.71
72798;BME280;61084;55.816;37.036;2022-08-02T04:35:55;99561.38;;;19.92;54.84
72798;BME280;61084;55.816;37.036;2022-08-02T04:38:23;99558.47;;;20.04;54.31
72798;BME280;61084;55.816;37.036;2022-08-02T04:40:51;99562.56;;;20.18;54.11
72798;BME280;61084;55.816;37.036;2022-08-02T04:43:18;99563.91;;;20.33;54.04
72798;BME280;61084;55.816;37.036;2022-08-02T04:45:45;99560.09;;;20.45;53.94
72798;BME280;61084;55.816;37.036;2022-08-02T04:48:11;99554.63;;;20.56;53.42
72798;BME280;61084;55.816;37.036;2022-08-02T04:50:37;99562.50;;;20.67;53.54
72798;BME280;61084;55.816;37.036;2022-08-02T04:53:03;99567.00;;;20.76;52.97
72798;BME280;61084;55.816;37.036;2022-08-02T04:55:28;99563.75;;;20.82;53.06
72798;BME280;61084;55.816;37.036;2022-08-02T04:57:54;99568.50;;;20.88;52.58
72798;BME280;61084;55.816;37.036;2022-08-02T05:00:22;99565.28;;;20.94;52.59
72798;BME280;61084;55.816;37.036;2022-08-02T05:02:48;99568.66;;;20.96;52.54
72798;BME280;61084;55.816;37.036;2022-08-02T05:05:17;99566.81;;;20.97;52.66
72798;BME280;61084;55.816;37.036;2022-08-02T05:07:43;99567.25;;;21.02;52.73
72798;BME280;61084;55.816;37.036;2022-08-02T05:10:09;99567.81;;;21.06;52.54
72798;BME280;61084;55.816;37.036;2022-08-02T05:12:39;99567.13;;;21.13;52.59
72798;BME280;61084;55.816;37.036;2022-08-02T05:15:05;99565.41;;;21.31;52.42
72798;BME280;61084;55.816;37.036;2022-08-02T05:17:31;99558.88;;;21.53;52.11
72798;BME280;61084;55.816;37.036;2022-08-02T05:19:57;99555.41;;;21.70;52.12
72798;BME280;61084;55.816;37.036;2022-08-02T05:22:23;99562.34;;;21.90;51.87
72798;BME280;61084;55.816;37.036;2022-08-02T05:24:48;99554.97;;;22.02;51.07
72798;BME280;61084;55.816;37.036;2022-08-02T05:27:14;99556.31;;;22.15;50.95
72798;BME280;61084;55.816;37.036;2022-08-02T05:29:40;99556.50;;;22.31;50.87
72798;BME280;61084;55.816;37.036;2022-08-02T05:32:06;99555.56;;;22.40;50.75
72798;BME280;61084;55.816;37.036;2022-08-02T05:34:32;99552.16;;;22.48;50.67
72798;BME280;61084;55.816;37.036;2022-08-02T05:36:58;99550.13;;;22.60;50.53
72798;BME280;61084;55.816;37.036;2022-08-02T05:39:23;99547.06;;;22.72;50.19
72798;BME280;61084;55.816;37.036;2022-08-02T05:41:49;99545.28;;;22.81;49.78
72798;BME280;61084;55.816;37.036;2022-08-02T05:44:15;99550.22;;;22.93;49.82
72798;BME280;61084;55.816;37.036;2022-08-02T05:46:41;99543.09;;;23.02;49.58
72798;BME280;61084;55.816;37.036;2022-08-02T05:49:06;99552.41;;;23.15;49.30
72798;BME280;61084;55.816;37.036;2022-08-02T05:51:36;99549.13;;;23.30;49.11
72798;BME280;61084;55.816;37.036;2022-08-02T05:54:11;99540.25;;;23.47;49.19
72798;BME280;61084;55.816;37.036;2022-08-02T05:56:55;99542.16;;;23.62;48.98
72798;BME280;61084;55.816;37.036;2022-08-02T06:00:06;99542.41;;;23.77;48.56
72798;BME280;61084;55.816;37.036;2022-08-02T06:07:35;99535.38;;;24.26;47.93
72798;BME280;61084;55.816;37.036;2022-08-02T06:10:05;99540.59;;;24.43;47.58
72798;BME280;61084;55.816;37.036;2022-08-02T06:12:34;99544.50;;;24.49;47.72
72798;BME280;61084;55.816;37.036;2022-08-02T06:15:02;99539.44;;;24.54;47.84
72798;BME280;61084;55.816;37.036;2022-08-02T06:17:30;99541.97;;;24.55;47.42
72798;BME280;61084;55.816;37.036;2022-08-02T06:19:59;99534.91;;;24.62;47.62
72798;BME280;61084;55.816;37.036;2022-08-02T06:22:29;99537.28;;;24.65;47.17
72798;BME280;61084;55.816;37.036;2022-08-02T06:24:54;99545.16;;;24.59;46.91
72798;BME280;61084;55.816;37.036;2022-08-02T06:27:26;99543.47;;;24.58;47.01
72798;BME280;61084;55.816;37.036;2022-08-02T06:29:53;99544.66;;;24.55;46.47
72798;BME280;61084;55.816;37.036;2022-08-02T06:32:19;99542.66;;;24.65;46.73
72798;BME280;61084;55.816;37.036;2022-08-02T06:34:45;99546.69;;;24.78;46.60
72798;BME280;61084;55.816;37.036;2022-08-02T06:39:47;99538.84;;;24.92;46.71
72798;BME280;61084;55.816;37.036;2022-08-02T06:42:17;99531.75;;;24.99;46.12
72798;BME280;61084;55.816;37.036;2022-08-02T06:44:53;99533.94;;;25.04;46.35
72798;BME280;61084;55.816;37.036;2022-08-02T06:47:18;99537.81;;;25.09;46.02
72798;BME280;61084;55.816;37.036;2022-08-02T06:49:44;99539.13;;;25.21;45.75
72798;BME280;61084;55.816;37.036;2022-08-02T06:52:10;99545.50;;;25.28;45.32
72798;BME280;61084;55.816;37.036;2022-08-02T06:54:36;99533.53;;;25.39;44.70
72798;BME280;61084;55.816;37.036;2022-08-02T06:57:22;99530.84;;;25.47;45.07
72798;BME280;61084;55.816;37.036;2022-08-02T06:59:47;99528.13;;;25.63;44.65
72798;BME280;61084;55.816;37.036;2022-08-02T07:02:13;99526.38;;;25.78;44.93
72798;BME280;61084;55.816;37.036;2022-08-02T07:04:39;99525.72;;;25.76;44.10
72798;BME280;61084;55.816;37.036;2022-08-02T07:07:04;99520.53;;;25.75;44.31
72798;BME280;61084;55.816;37.036;2022-08-02T07:09:30;99528.06;;;25.79;43.90
72798;BME280;61084;55.816;37.036;2022-08-02T07:11:56;99528.53;;;25.83;44.21
72798;BME280;61084;55.816;37.036;2022-08-02T07:14:21;99522.28;;;25.90;42.84
72798;BME280;61084;55.816;37.036;2022-08-02T07:16:47;99524.28;;;25.96;43.82
72798;BME280;61084;55.816;37.036;2022-08-02T07:19:13;99516.63;;;26.08;43.26
72798;BME280;61084;55.816;37.036;2022-08-02T07:21:38;99520.00;;;26.18;43.50
72798;BME280;61084;55.816;37.036;2022-08-02T07:24:04;99516.66;;;26.39;43.49
72798;BME280;61084;55.816;37.036;2022-08-02T07:26:30;99515.03;;;26.52;42.24
72798;BME280;61084;55.816;37.036;2022-08-02T07:28:55;99524.09;;;26.59;43.45
72798;BME280;61084;55.816;37.036;2022-08-02T07:31:23;99519.16;;;26.63;42.85
72798;BME280;61084;55.816;37.036;2022-08-02T07:33:48;99519.81;;;26.73;42.57
72798;BME280;61084;55.816;37.036;2022-08-02T07:36:14;99514.69;;;26.78;42.70
72798;BME280;61084;55.816;37.036;2022-08-02T07:38:40;99515.31;;;26.88;42.71
72798;BME280;61084;55.816;37.036;2022-08-02T07:41:05;99525.81;;;26.98;42.61
72798;BME280;61084;55.816;37.036;2022-08-02T07:43:31;99512.53;;;26.96;42.42
72798;BME280;61084;55.816;37.036;2022-08-02T07:45:57;99518.88;;;27.03;42.06
72798;BME280;61084;55.816;37.036;2022-08-02T07:48:23;99521.03;;;27.22;41.67
72798;BME280;61084;55.816;37.036;2022-08-02T07:50:48;99520.47;;;27.27;41.13
72798;BME280;61084;55.816;37.036;2022-08-02T07:53:14;99509.78;;;27.33;41.33
72798;BME280;61084;55.816;37.036;2022-08-02T07:55:40;99503.25;;;27.28;41.27
72798;BME280;61084;55.816;37.036;2022-08-02T07:58:10;99510.25;;;27.22;41.15
72798;BME280;61084;55.816;37.036;2022-08-02T08:00:36;99516.44;;;27.08;41.05
72798;BME280;61084;55.816;37.036;2022-08-02T08:03:01;99515.69;;;27.00;40.30
72798;BME280;61084;55.816;37.036;2022-08-02T08:05:27;99511.59;;;27.04;41.18
72798;BME280;61084;55.816;37.036;2022-08-02T08:07:53;99511.25;;;27.07;40.97
72798;BME280;61084;55.816;37.036;2022-08-02T08:10:19;99511.59;;;27.04;40.65
72798;BME280;61084;55.816;37.036;2022-08-02T08:12:44;99513.81;;;27.00;40.70
72798;BME280;61084;55.816;37.036;2022-08-02T08:15:10;99516.88;;;26.97;40.73
72798;BME280;61084;55.816;37.036;2022-08-02T08:17:36;99518.09;;;26.95;40.94
72798;BME280;61084;55.816;37.036;2022-08-02T08:20:03;99520.16;;;27.07;41.09
72798;BME280;61084;55.816;37.036;2022-08-02T08:22:29;99518.53;;;27.21;40.75
72798;BME280;61084;55.816;37.036;2022-08-02T08:24:55;99510.50;;;27.13;39.85
72798;BME280;61084;55.816;37.036;2022-08-02T08:27:21;99507.69;;;27.06;40.04
72798;BME280;61084;55.816;37.036;2022-08-02T08:29:47;99510.03;;;27.24;40.04
72798;BME280;61084;55.816;37.036;2022-08-02T08:32:13;99503.78;;;27.46;39.89
72798;BME280;61084;55.816;37.036;2022-08-02T08:34:40;99504.34;;;27.71;40.29
72798;BME280;61084;55.816;37.036;2022-08-02T08:37:05;99509.91;;;27.84;39.47
72798;BME280;61084;55.816;37.036;2022-08-02T08:39:31;99505.44;;;27.76;37.91
72798;BME280;61084;55.816;37.036;2022-08-02T08:41:57;99499.28;;;27.68;38.93
72798;BME280;61084;55.816;37.036;2022-08-02T08:44:23;99506.47;;;27.60;38.77
72798;BME280;61084;55.816;37.036;2022-08-02T08:46:49;99505.13;;;27.71;39.03
72798;BME280;61084;55.816;37.036;2022-08-02T08:51:50;99496.72;;;27.95;38.58
72798;BME280;61084;55.816;37.036;2022-08-02T08:54:17;99503.81;;;28.11;38.77
72798;BME280;61084;55.816;37.036;2022-08-02T08:56:44;99495.41;;;28.20;38.14
72798;BME280;61084;55.816;37.036;2022-08-02T08:59:09;99506.16;;;28.35;38.16
72798;BME280;61084;55.816;37.036;2022-08-02T09:01:35;99505.22;;;28.43;37.99
72798;BME280;61084;55.816;37.036;2022-08-02T09:04:02;99505.94;;;28.36;37.99
72798;BME280;61084;55.816;37.036;2022-08-02T09:06:28;99507.50;;;28.24;37.61
72798;BME280;61084;55.816;37.036;2022-08-02T09:08:54;99503.81;;;28.11;37.67
72798;BME280;61084;55.816;37.036;2022-08-02T09:11:24;99498.78;;;28.08;37.58
72798;BME280;61084;55.816;37.036;2022-08-02T09:13:54;99503.09;;;28.02;37.35
72798;BME280;61084;55.816;37.036;2022-08-02T09:16:31;99500.47;;;28.09;37.31
72798;BME280;61084;55.816;37.036;2022-08-02T09:18:59;99493.16;;;28.24;37.85
72798;BME280;61084;55.816;37.036;2022-08-02T09:21:36;99490.59;;;28.37;36.94
72798;BME280;61084;55.816;37.036;2022-08-02T09:24:14;99500.69;;;28.50;36.24
72798;BME280;61084;55.816;37.036;2022-08-02T09:26:41;99489.94;;;28.56;36.80
72798;BME280;61084;55.816;37.036;2022-08-02T09:29:07;99492.56;;;28.64;36.91
72798;BME280;61084;55.816;37.036;2022-08-02T09:31:33;99491.00;;;28.55;36.96
72798;BME280;61084;55.816;37.036;2022-08-02T09:33:59;99487.19;;;28.50;36.88
72798;BME280;61084;55.816;37.036;2022-08-02T09:36:26;99489.88;;;28.50;35.63
72798;BME280;61084;55.816;37.036;2022-08-02T09:41:23;99479.28;;;28.69;36.00
72798;BME280;61084;55.816;37.036;2022-08-02T09:43:49;99478.50;;;28.75;35.96
72798;BME280;61084;55.816;37.036;2022-08-02T09:46:23;99473.34;;;28.80;35.65
72798;BME280;61084;55.816;37.036;2022-08-02T09:48:52;99480.75;;;28.72;35.76
72798;BME280;61084;55.816;37.036;2022-08-02T09:51:21;99473.09;;;28.54;35.75
72798;BME280;61084;55.816;37.036;2022-08-02T09:53:56;99484.41;;;28.58;35.77
72798;BME280;61084;55.816;37.036;2022-08-02T09:56:23;99482.19;;;28.68;36.21
72798;BME280;61084;55.816;37.036;2022-08-02T09:58:50;99479.69;;;28.66;35.47
72798;BME280;61084;55.816;37.036;2022-08-02T10:01:18;99474.09;;;28.68;35.78
72798;BME280;61084;55.816;37.036;2022-08-02T10:03:57;99475.56;;;28.70;34.90
72798;BME280;61084;55.816;37.036;2022-08-02T10:06:24;99475.31;;;28.65;35.59
72798;BME280;61084;55.816;37.036;2022-08-02T10:08:50;99478.22;;;28.64;35.45
72798;BME280;61084;55.816;37.036;2022-08-02T10:11:19;99481.13;;;28.62;35.77
72798;BME280;61084;55.816;37.036;2022-08-02T10:13:46;99480.44;;;28.81;36.07
72798;BME280;61084;55.816;37.036;2022-08-02T10:16:14;99474.56;;;28.99;35.46
72798;BME280;61084;55.816;37.036;2022-08-02T10:18:41;99478.06;;;29.21;35.52
72798;BME280;61084;55.816;37.036;2022-08-02T10:21:12;99461.47;;;29.30;35.34
72798;BME280;61084;55.816;37.036;2022-08-02T10:23:39;99475.88;;;29.37;35.68
72798;BME280;61084;55.816;37.036;2022-08-02T10:26:07;99474.25;;;29.49;35.80
72798;BME280;61084;55.816;37.036;2022-08-02T10:28:33;99472.22;;;29.51;35.82
72798;BME280;61084;55.816;37.036;2022-08-02T10:31:01;99470.31;;;29.52;35.06
72798;BME280;61084;55.816;37.036;2022-08-02T10:33:32;99473.19;;;29.44;35.02
72798;BME280;61084;55.816;37.036;2022-08-02T10:36:00;99473.63;;;29.47;35.37
72798;BME280;61084;55.816;37.036;2022-08-02T10:38:27;99464.94;;;29.58;35.24
72798;BME280;61084;55.816;37.036;2022-08-02T10:40:54;99468.88;;;29.56;34.95
72798;BME280;61084;55.816;37.036;2022-08-02T10:54:18;99461.25;;;29.25;34.41
72798;BME280;61084;55.816;37.036;2022-08-02T10:56:49;99460.50;;;29.44;34.97
72798;BME280;61084;55.816;37.036;2022-08-02T10:59:30;99461.19;;;29.53;34.29
72798;BME280;61084;55.816;37.036;2022-08-02T11:01:58;99452.03;;;29.60;34.71
72798;BME280;61084;55.816;37.036;2022-08-02T11:07:07;99451.47;;;29.71;34.41
72798;BME280;61084;55.816;37.036;2022-08-02T11:09:33;99449.25;;;29.75;34.21
72798;BME280;61084;55.816;37.036;2022-08-02T11:12:14;99453.44;;;29.91;34.03
72798;BME280;61084;55.816;37.036;2022-08-02T11:14:43;99460.19;;;30.14;34.18
72798;BME280;61084;55.816;37.036;2022-08-02T11:17:10;99450.19;;;30.28;34.24
72798;BME280;61084;55.816;37.036;2022-08-02T11:22:34;99454.41;;;30.37;33.55
72798;BME280;61084;55.816;37.036;2022-08-02T11:30:14;99450.28;;;30.67;33.24
72798;BME280;61084;55.816;37.036;2022-08-02T11:32:40;99451.72;;;30.76;32.94
72798;BME280;61084;55.816;37.036;2022-08-02T11:35:06;99448.41;;;30.81;33.33
72798;BME280;61084;55.816;37.036;2022-08-02T11:37:35;99454.22;;;30.84;33.01
72798;BME280;61084;55.816;37.036;2022-08-02T11:40:02;99465.53;;;30.94;33.02
72798;BME280;61084;55.816;37.036;2022-08-02T11:42:37;99464.91;;;30.99;31.56
72798;BME280;61084;55.816;37.036;2022-08-02T11:45:05;99463.00;;;30.99;32.54
72798;BME280;61084;55.816;37.036;2022-08-02T11:47:31;99463.22;;;31.04;32.67
72798;BME280;61084;55.816;37.036;2022-08-02T11:50:07;99462.19;;;30.99;31.79
72798;BME280;61084;55.816;37.036;2022-08-02T11:52:34;99460.72;;;30.96;32.51
72798;BME280;61084;55.816;37.036;2022-08-02T11:55:00;99464.69;;;30.87;32.66
72798;BME280;61084;55.816;37.036;2022-08-02T11:57:26;99461.13;;;30.74;32.34
72798;BME280;61084;55.816;37.036;2022-08-02T11:59:54;99468.00;;;30.63;32.44
72798;BME280;61084;55.816;37.036;2022-08-02T12:02:23;99454.66;;;30.68;33.21
72798;BME280;61084;55.816;37.036;2022-08-02T12:05:01;99455.72;;;30.87;31.85
72798;BME280;61084;55.816;37.036;2022-08-02T12:07:31;99460.72;;;31.09;32.46
72798;BME280;61084;55.816;37.036;2022-08-02T12:10:09;99460.47;;;31.31;32.26
72798;BME280;61084;55.816;37.036;2022-08-02T12:15:28;99459.31;;;31.71;31.88
72798;BME280;61084;55.816;37.036;2022-08-02T12:17:54;99460.88;;;31.91;32.52
72798;BME280;61084;55.816;37.036;2022-08-02T12:20:39;99457.78;;;31.88;31.96
72798;BME280;61084;55.816;37.036;2022-08-02T12:23:05;99464.16;;;31.62;31.91
72798;BME280;61084;55.816;37.036;2022-08-02T12:25:31;99462.13;;;31.45;31.91
72798;BME280;61084;55.816;37.036;2022-08-02T12:28:14;99465.03;;;31.37;31.08
72798;BME280;61084;55.816;37.036;2022-08-02T12:30:52;99464.03;;;31.18;31.01
72798;BME280;61084;55.816;37.036;2022-08-02T12:33:20;99467.38;;;31.07;32.01
72798;BME280;61084;55.816;37.036;2022-08-02T12:35:46;99457.16;;;31.02;32.34
72798;BME280;61084;55.816;37.036;2022-08-02T12:38:12;99466.38;;;30.95;32.26
72798;BME280;61084;55.816;37.036;2022-08-02T12:40:39;99461.75;;;30.89;31.96
72798;BME280;61084;55.816;37.036;2022-08-02T12:43:07;99455.09;;;30.91;32.21
72798;BME280;61084;55.816;37.036;2022-08-02T12:45:49;99454.66;;;31.07;29.93
72798;BME280;61084;55.816;37.036;2022-08-02T12:48:35;99456.50;;;31.20;31.52
72798;BME280;61084;55.816;37.036;2022-08-02T12:53:46;99457.09;;;31.48;31.76
72798;BME280;61084;55.816;37.036;2022-08-02T12:56:31;99449.56;;;31.57;30.66
72798;BME280;61084;55.816;37.036;2022-08-02T12:58:58;99447.19;;;31.67;31.14
72798;BME280;61084;55.816;37.036;2022-08-02T13:01:26;99440.44;;;31.82;30.61
72798;BME280;61084;55.816;37.036;2022-08-02T13:03:52;99446.91;;;31.94;31.05
72798;BME280;61084;55.816;37.036;2022-08-02T13:06:19;99448.31;;;32.10;31.00
72798;BME280;61084;55.816;37.036;2022-08-02T13:08:46;99444.47;;;32.18;30.59
72798;BME280;61084;55.816;37.036;2022-08-02T13:11:13;99452.31;;;32.32;30.35
72798;BME280;61084;55.816;37.036;2022-08-02T13:13:39;99442.41;;;32.44;30.60
72798;BME280;61084;55.816;37.036;2022-08-02T13:16:05;99440.75;;;32.43;30.38
72798;BME280;61084;55.816;37.036;2022-08-02T13:18:31;99452.38;;;32.57;30.54
72798;BME280;61084;55.816;37.036;2022-08-02T13:20:57;99449.94;;;32.73;30.55
72798;BME280;61084;55.816;37.036;2022-08-02T13:23:23;99441.28;;;32.83;30.27
72798;BME280;61084;55.816;37.036;2022-08-02T13:25:51;99443.66;;;32.98;30.17
72798;BME280;61084;55.816;37.036;2022-08-02T13:28:19;99448.41;;;33.09;29.86
72798;BME280;61084;55.816;37.036;2022-08-02T13:30:46;99451.28;;;33.14;29.27
72798;BME280;61084;55.816;37.036;2022-08-02T13:33:12;99441.38;;;33.19;29.51
72798;BME280;61084;55.816;37.036;2022-08-02T13:35:39;99435.78;;;33.32;29.18
72798;BME280;61084;55.816;37.036;2022-08-02T13:38:04;99441.22;;;33.32;29.07
72798;BME280;61084;55.816;37.036;2022-08-02T13:40:31;99438.06;;;33.35;29.06